Time;durP1;ratioP1;P1;durP2;ratioP2;P2;SDS_P1;SDS_P2;PMS_P1;PMS_P2;Temp;Humidity;BMP_temperature;BMP_pressure;BME280_temperature;BME280_humidity;BME280_pressure;Samples;Min_cycle;Max_cycle;Signal;HPM_P1;HPM_P2
2022/08/08 00:00:54;;;;;;;1.30;1.30;;;;;;;25.09;63.10;97883.31;5058066;28;20736;-21
2022/08/08 00:04:05;;;;;;;1.20;1.10;;;;;;;25.10;62.76;97876.44;5071165;28;20771;-21
2022/08/08 00:06:46;;;;;;;1.40;1.30;;;;;;;25.10;63.00;97886.75;5055225;28;20200;-21
2022/08/08 00:09:27;;;;;;;1.30;1.20;;;;;;;25.10;62.68;97879.03;5063102;28;20283;-21
2022/08/08 00:12:00;;;;;;;2.43;1.10;;;;;;;24.88;62.89;97844.28;5057912;28;20250;-21
2022/08/08 00:14:57;;;;;;;1.20;1.10;;;;;;;25.10;63.10;97889.31;5055964;28;20213;-21
2022/08/08 00:17:38;;;;;;;1.33;1.20;;;;;;;25.10;63.26;97885.03;5061682;28;20638;-21
2022/08/08 00:20:32;;;;;;;1.10;1.10;;;;;;;25.09;63.04;97895.31;5069561;28;20572;-21
2022/08/08 00:23:03;;;;;;;1.33;1.10;;;;;;;25.10;63.18;97889.31;5060993;28;20246;-21
2022/08/08 00:25:37;;;;;;;1.10;1.10;;;;;;;25.10;63.00;97892.75;5067121;28;20288;-21
2022/08/08 00:28:12;;;;;;;1.17;1.17;;;;;;;25.10;62.99;97890.19;5065097;28;20759;-21
2022/08/08 00:30:59;;;;;;;1.43;1.33;;;;;;;25.11;63.17;97893.63;5070088;28;20200;-21
2022/08/08 00:33:51;;;;;;;1.00;1.00;;;;;;;25.09;63.09;97900.44;5071997;28;20211;-21
2022/08/08 00:36:37;;;;;;;1.30;1.20;;;;;;;25.10;62.99;97902.16;5051500;28;20201;-21
2022/08/08 00:39:10;;;;;;;1.10;1.10;;;;;;;25.10;63.03;97892.75;5051953;28;20233;-21
2022/08/08 00:42:27;;;;;;;1.17;1.10;;;;;;;25.10;62.76;97891.88;5057182;28;20210;-21
2022/08/08 00:45:32;;;;;;;1.20;1.20;;;;;;;25.11;63.13;97898.78;5061792;28;20291;-21
2022/08/08 00:48:23;;;;;;;3.13;1.20;;;;;;;25.10;62.86;97903.06;5064494;28;20311;-21
2022/08/08 00:51:08;;;;;;;1.20;1.10;;;;;;;25.10;63.19;97903.06;5058601;28;20261;-21
2022/08/08 00:53:59;;;;;;;1.10;1.10;;;;;;;25.10;62.86;97897.91;5061756;28;20247;-20
2022/08/08 00:56:44;;;;;;;1.20;1.20;;;;;;;25.10;63.18;97905.63;5061763;28;20207;-21
2022/08/08 00:59:10;;;;;;;1.20;1.10;;;;;;;25.09;62.91;97906.47;5065145;28;20248;-21
2022/08/08 01:02:13;;;;;;;1.37;1.27;;;;;;;25.10;63.01;97907.31;5068675;28;20652;-21
2022/08/08 01:05:06;;;;;;;1.10;1.10;;;;;;;25.10;62.72;97902.16;5058473;28;20362;-21
2022/08/08 01:07:50;;;;;;;1.00;1.00;;;;;;;25.10;63.25;97897.03;5062715;28;20259;-21
2022/08/08 01:10:48;;;;;;;1.10;1.10;;;;;;;25.09;62.83;97893.59;5059167;28;20201;-21
2022/08/08 01:13:35;;;;;;;1.10;1.10;;;;;;;25.09;63.09;97903.00;5061528;28;20255;-21
2022/08/08 01:16:18;;;;;;;1.30;1.20;;;;;;;25.08;62.88;97902.13;5070760;28;20667;-21
2022/08/08 01:19:08;;;;;;;1.10;1.10;;;;;;;25.08;62.67;97902.13;5057866;28;20239;-21
2022/08/08 01:22:43;;;;;;;1.90;1.27;;;;;;;25.09;62.85;97888.47;5066723;28;20265;-21
2022/08/08 01:25:47;;;;;;;1.23;1.17;;;;;;;25.09;62.82;97893.59;4988871;28;20203;-21
2022/08/08 01:28:28;;;;;;;1.10;1.10;;;;;;;25.09;62.93;97896.19;5000945;28;20222;-21
2022/08/08 01:31:40;;;;;;;1.13;1.13;;;;;;;25.09;62.96;97893.59;5057019;28;20239;-21
2022/08/08 01:34:49;;;;;;;1.03;1.03;;;;;;;25.09;62.98;97885.91;5065361;28;20199;-21
2022/08/08 01:37:21;;;;;;;1.10;1.10;;;;;;;25.09;62.80;97890.16;5065711;28;20236;-21
2022/08/08 01:40:36;;;;;;;1.20;1.20;;;;;;;25.09;62.85;97887.59;5072290;28;20196;-21
2022/08/08 01:43:09;;;;;;;1.10;1.10;;;;;;;25.09;62.82;97893.59;5054277;28;20197;-22
2022/08/08 01:45:47;;;;;;;1.10;1.10;;;;;;;25.09;62.93;97887.59;5067421;28;20236;-21
2022/08/08 01:48:38;;;;;;;1.30;1.20;;;;;;;25.08;63.01;97884.13;5083804;28;20267;-21
2022/08/08 01:51:28;;;;;;;1.10;1.10;;;;;;;25.08;63.19;97884.13;5059713;28;20201;-21
2022/08/08 01:54:32;;;;;;;1.27;1.20;;;;;;;25.01;62.76;97871.13;5060508;28;20193;-21
2022/08/08 01:57:41;;;;;;;1.10;1.10;;;;;;;25.09;63.23;97890.16;5062544;28;20222;-21
2022/08/08 02:00:52;;;;;;;1.10;1.10;;;;;;;25.09;62.99;97892.72;5070175;28;20606;-21
2022/08/08 02:03:45;;;;;;;1.20;1.10;;;;;;;25.08;63.19;97888.44;5054532;28;20287;-21
2022/08/08 02:06:47;;;;;;;1.10;1.10;;;;;;;25.08;63.30;97898.72;5061823;28;20228;-21
2022/08/08 02:09:22;;;;;;;0.90;0.90;;;;;;;24.84;63.14;97859.63;5071150;28;20257;-21
2022/08/08 02:12:20;;;;;;;2.57;1.10;;;;;;;25.09;63.01;97900.44;5061619;28;20197;-21
2022/08/08 02:15:03;;;;;;;1.20;1.10;;;;;;;25.08;63.11;97903.88;5053984;28;20614;-20
2022/08/08 02:17:43;;;;;;;1.10;1.10;;;;;;;25.00;62.83;97889.97;5064235;28;20707;-21
2022/08/08 02:20:29;;;;;;;1.10;1.10;;;;;;;25.08;63.26;97906.44;5070649;28;20220;-21
2022/08/08 02:23:30;;;;;;;1.40;1.30;;;;;;;25.08;62.85;97914.16;5068647;28;20204;-21
2022/08/08 02:26:26;;;;;;;1.20;1.20;;;;;;;25.08;62.92;97911.59;5054984;28;20239;-20
2022/08/08 02:28:56;;;;;;;1.10;1.10;;;;;;;25.09;62.88;97905.59;5052470;28;20221;-21
2022/08/08 02:32:15;;;;;;;1.20;1.20;;;;;;;25.08;63.44;97901.28;5057513;28;20649;-21
2022/08/08 02:35:16;;;;;;;1.30;1.20;;;;;;;25.08;63.21;97903.88;5039321;28;20200;-21
2022/08/08 02:38:05;;;;;;;1.50;1.40;;;;;;;25.09;63.09;97905.59;5060328;28;20824;-21
2022/08/08 02:41:08;;;;;;;1.13;1.13;;;;;;;25.08;63.01;97904.72;5060228;28;20199;-21
2022/08/08 02:43:57;;;;;;;1.10;1.10;;;;;;;25.09;63.08;97908.16;5057580;28;20203;-21
2022/08/08 02:47:20;;;;;;;1.17;1.17;;;;;;;25.09;63.14;97905.59;5061439;28;20207;-21
2022/08/08 02:49:59;;;;;;;1.10;1.10;;;;;;;25.08;63.25;97914.16;5064262;28;20286;-21
2022/08/08 02:52:47;;;;;;;1.10;1.10;;;;;;;25.09;62.99;97910.72;5052433;28;20719;-21
2022/08/08 02:55:40;;;;;;;1.30;1.30;;;;;;;25.08;63.41;97914.16;5057624;28;20200;-21
2022/08/08 02:58:27;;;;;;;1.10;1.10;;;;;;;25.08;63.13;97911.59;5080703;22;20596;-31
2022/08/08 03:01:30;;;;;;;1.23;1.23;;;;;;;25.08;63.00;97906.44;5059391;28;20205;-31
2022/08/08 03:04:53;;;;;;;1.10;1.10;;;;;;;25.09;63.28;97903.00;5056386;28;20197;-32
2022/08/08 03:07:50;;;;;;;1.13;1.13;;;;;;;25.09;63.38;97905.59;5053300;28;20193;-31
2022/08/08 03:10:33;;;;;;;1.20;1.20;;;;;;;25.08;63.27;97909.00;5046997;28;20284;-31
2022/08/08 03:13:28;;;;;;;1.17;1.17;;;;;;;25.09;63.08;97921.03;5011690;28;20212;-31
2022/08/08 03:16:23;;;;;;;1.20;1.20;;;;;;;25.08;63.29;97912.44;5027891;28;20659;-31
2022/08/08 03:19:34;;;;;;;1.50;1.40;;;;;;;25.07;62.94;97918.41;5034520;28;20225;-31
2022/08/08 03:22:03;;;;;;;1.10;1.10;;;;;;;25.07;63.08;97915.84;5037903;28;20279;-31
2022/08/08 03:24:53;;;;;;;1.13;1.13;;;;;;;25.07;62.94;97913.28;5038423;28;20219;-31
2022/08/08 03:27:27;;;;;;;1.30;1.30;;;;;;;25.07;63.39;97909.81;5036262;28;20248;-31
2022/08/08 03:30:08;;;;;;;1.10;1.10;;;;;;;25.07;63.17;97912.41;5034306;28;20582;-31
2022/08/08 03:35:37;;;;;;;1.10;1.10;;;;;;;25.07;63.38;97912.41;5034664;28;20252;-31
2022/08/08 03:38:03;;;;;;;1.20;1.20;;;;;;;25.02;63.15;97903.72;5034854;28;20704;-31
2022/08/08 03:40:51;;;;;;;1.30;1.30;;;;;;;25.05;63.31;97909.78;5021888;28;20232;-31
2022/08/08 03:43:18;;;;;;;1.40;1.30;;;;;;;25.07;63.08;97915.84;5035381;28;20224;-31
2022/08/08 03:45:46;;;;;;;1.20;1.20;;;;;;;25.08;63.19;97914.16;5033578;28;20229;-31
2022/08/08 03:48:32;;;;;;;1.40;1.30;;;;;;;25.07;63.24;97913.28;5033749;28;20594;-31
2022/08/08 03:51:19;;;;;;;1.40;1.30;;;;;;;25.08;63.18;97927.00;5030977;28;20212;-31
2022/08/08 03:54:05;;;;;;;1.00;1.00;;;;;;;25.08;63.29;97927.00;5038694;28;20198;-31
2022/08/08 03:56:33;;;;;;;1.10;1.10;;;;;;;25.07;63.49;97927.81;5035043;28;20284;-31
2022/08/08 03:59:01;;;;;;;1.20;1.20;;;;;;;25.08;63.24;97927.00;5046362;28;20230;-31
2022/08/08 04:01:37;;;;;;;1.10;1.10;;;;;;;25.08;63.28;97929.59;5035324;28;20661;-31
2022/08/08 04:04:23;;;;;;;1.30;1.20;;;;;;;25.07;63.10;97931.28;5034271;28;20220;-31
2022/08/08 04:06:57;;;;;;;1.00;1.00;;;;;;;25.02;63.22;97922.59;5033720;28;20225;-31
2022/08/08 04:09:27;;;;;;;1.03;1.03;;;;;;;25.07;63.02;97936.41;5034028;28;20220;-31
2022/08/08 04:12:12;;;;;;;1.40;1.30;;;;;;;25.04;63.31;97930.34;5024272;28;20197;-31
2022/08/08 04:14:41;;;;;;;1.43;1.33;;;;;;;25.05;62.96;97938.06;5031857;28;20643;-31
2022/08/08 04:17:10;;;;;;;1.10;1.10;;;;;;;25.08;63.35;97945.88;5030097;28;20208;-31
2022/08/08 04:19:57;;;;;;;1.20;1.20;;;;;;;25.07;63.77;97939.00;5038064;28;20229;-31
2022/08/08 04:22:25;;;;;;;1.17;1.17;;;;;;;25.07;63.14;97941.56;5040750;28;20221;-31
2022/08/08 04:24:55;;;;;;;1.17;1.17;;;;;;;25.05;63.15;97943.22;5035548;28;20297;-31
2022/08/08 04:27:22;;;;;;;1.20;1.20;;;;;;;25.00;63.52;97932.00;5041151;28;20233;-31
2022/08/08 04:30:09;;;;;;;1.30;1.20;;;;;;;25.08;63.21;97950.16;5048498;28;20200;-31
2022/08/08 04:32:44;;;;;;;1.33;1.23;;;;;;;25.08;63.42;97960.44;5032773;28;20252;-31
2022/08/08 04:35:16;;;;;;;1.10;1.10;;;;;;;25.08;63.54;97963.03;5036786;28;20217;-31
2022/08/08 04:37:45;;;;;;;1.30;1.20;;;;;;;25.08;63.27;97963.88;5044707;28;20224;-31
2022/08/08 04:40:14;;;;;;;1.33;1.30;;;;;;;25.08;63.34;97963.03;5038812;28;20249;-31
2022/08/08 04:42:43;;;;;;;1.17;1.17;;;;;;;25.03;63.33;97956.91;5037824;28;20205;-31
2022/08/08 04:45:26;;;;;;;1.10;1.10;;;;;;;25.00;62.94;97946.53;5031486;28;20197;-31
2022/08/08 04:47:53;;;;;;;1.17;1.17;;;;;;;25.09;63.41;97968.19;5038572;28;20224;-31
2022/08/08 04:50:20;;;;;;;1.37;1.27;;;;;;;25.08;63.14;97975.88;5036303;28;20667;-31
2022/08/08 04:52:51;;;;;;;1.30;1.30;;;;;;;25.09;63.14;97975.03;5041581;28;20197;-31
2022/08/08 04:55:26;;;;;;;1.30;1.20;;;;;;;25.09;62.96;97978.50;5035706;28;20208;-31
2022/08/08 04:58:14;;;;;;;1.07;1.07;;;;;;;25.09;63.22;97981.06;5032100;28;20239;-31
2022/08/08 05:00:43;;;;;;;1.40;1.30;;;;;;;25.04;63.47;97969.78;5048270;28;20589;-31
2022/08/08 05:03:10;;;;;;;1.23;1.23;;;;;;;25.10;63.38;97984.47;5041488;28;20201;-31
2022/08/08 05:05:38;;;;;;;1.33;1.20;;;;;;;25.07;63.41;97980.16;5035742;28;20205;-31
2022/08/08 05:08:12;;;;;;;4.73;1.90;;;;;;;25.07;59.25;97975.00;5040255;28;20225;-31
2022/08/08 05:10:39;;;;;;;3.37;1.90;;;;;;;25.07;57.24;97987.88;5040670;28;20229;-31
2022/08/08 05:13:05;;;;;;;4.30;2.47;;;;;;;25.06;55.83;97986.13;5041700;28;20229;-31
2022/08/08 05:15:43;;;;;;;2.77;2.33;;;;;;;25.05;54.56;97993.81;5034506;28;20252;-31
2022/08/08 05:18:30;;;;;;;3.30;2.40;;;;;;;25.03;53.73;97987.75;5033372;28;20228;-31
2022/08/08 05:20:56;;;;;;;3.70;2.47;;;;;;;25.02;53.13;97992.03;5033254;28;20288;-31
2022/08/08 05:23:23;;;;;;;5.17;2.47;;;;;;;24.98;53.19;97984.19;5030160;28;20198;-31
2022/08/08 05:25:55;;;;;;;4.40;2.70;;;;;;;24.98;53.31;97985.09;5030499;28;20700;-31
2022/08/08 05:28:26;;;;;;;3.40;2.30;;;;;;;24.99;53.15;97991.94;5036571;28;20240;-31
2022/08/08 05:31:13;;;;;;;5.27;2.30;;;;;;;24.99;52.68;97985.97;5044303;28;20211;-31
2022/08/08 05:34:01;;;;;;;4.33;2.50;;;;;;;24.86;52.74;97973.63;5038090;28;20698;-31
2022/08/08 05:36:33;;;;;;;3.13;2.50;;;;;;;24.96;52.26;97991.03;5032779;28;20256;-31
2022/08/08 05:39:00;;;;;;;4.63;2.27;;;;;;;24.93;52.26;97990.97;5035228;28;20225;-31
2022/08/08 05:41:27;;;;;;;3.00;2.40;;;;;;;24.91;51.78;97996.06;5031417;28;20194;-31
2022/08/08 05:44:01;;;;;;;2.60;2.20;;;;;;;24.92;51.36;97999.50;5032439;28;20245;-31
2022/08/08 05:46:30;;;;;;;4.47;2.60;;;;;;;24.91;51.37;97998.66;5035295;28;20202;-31
2022/08/08 05:48:57;;;;;;;3.80;2.70;;;;;;;24.90;51.17;98003.75;5038499;28;20221;-31
2022/08/08 05:51:25;;;;;;;2.23;2.03;;;;;;;24.89;51.56;98009.69;5021364;28;20201;-31
2022/08/08 05:53:51;;;;;;;3.50;2.47;;;;;;;24.85;51.50;97990.78;5032348;28;20244;-31
2022/08/08 05:56:39;;;;;;;3.27;2.40;;;;;;;24.87;51.20;98007.09;5031628;28;20212;-31
2022/08/08 05:59:22;;;;;;;2.77;2.37;;;;;;;24.86;51.59;98010.50;5026716;28;20229;-31
2022/08/08 06:03:09;;;;;;;3.60;2.13;;;;;;;24.85;51.37;98011.34;5034481;28;20819;-31
2022/08/08 06:05:09;;;;;;;6.20;2.63;;;;;;;24.84;51.55;98011.31;5047037;28;20641;-31
2022/08/08 06:07:55;;;;;;;6.40;2.40;;;;;;;24.81;51.63;98012.09;5033273;28;20695;-31
2022/08/08 06:10:35;;;;;;;5.43;2.43;;;;;;;24.81;51.86;98011.25;5045898;28;20679;-31
2022/08/08 06:13:06;;;;;;;2.33;2.13;;;;;;;24.74;52.14;98006.78;5031843;28;20190;-31
2022/08/08 06:15:34;;;;;;;2.70;2.43;;;;;;;24.82;52.16;98020.69;5031085;28;20200;-31
2022/08/08 06:18:19;;;;;;;2.40;2.20;;;;;;;24.81;52.60;98027.53;5032751;28;20221;-31
2022/08/08 06:20:48;;;;;;;2.70;2.40;;;;;;;24.82;53.26;98026.72;5032148;28;20445;-31
2022/08/08 06:23:18;;;;;;;2.63;2.43;;;;;;;24.83;53.16;98030.13;5031143;28;20738;-31
2022/08/08 06:26:07;;;;;;;4.13;2.27;;;;;;;24.83;54.15;98031.00;5031993;28;20204;-31
2022/08/08 06:29:12;;;;;;;7.53;2.40;;;;;;;24.84;54.95;98035.31;5031910;28;20225;-31
2022/08/08 06:32:01;;;;;;;2.67;1.93;;;;;;;24.84;55.12;98042.16;5023079;28;20668;-31
2022/08/08 06:34:41;;;;;;;3.33;2.50;;;;;;;24.76;55.45;98018.84;5033569;28;20575;-31
2022/08/08 06:37:22;;;;;;;3.30;2.50;;;;;;;24.75;55.27;98024.81;5030377;28;20278;-31
2022/08/08 06:40:04;;;;;;;7.30;2.13;;;;;;;24.82;55.54;98034.41;5040606;28;20229;-31
2022/08/08 06:42:34;;;;;;;4.33;2.47;;;;;;;24.87;55.59;98044.81;5040132;28;20201;-31
2022/08/08 06:45:03;;;;;;;8.57;2.40;;;;;;;24.79;55.32;98034.34;5035884;28;20216;-31
2022/08/08 06:47:31;;;;;;;2.83;2.13;;;;;;;24.85;55.39;98041.34;5038880;28;20220;-31
2022/08/08 06:49:59;;;;;;;3.57;2.53;;;;;;;24.88;55.24;98044.84;5035256;28;20232;-31
2022/08/08 06:52:29;;;;;;;4.00;2.27;;;;;;;24.89;55.27;98046.59;5042127;28;20211;-31
2022/08/08 06:54:57;;;;;;;2.50;2.20;;;;;;;24.90;55.73;98048.31;5032078;28;20625;-31
2022/08/08 06:57:25;;;;;;;2.60;2.40;;;;;;;24.90;56.21;98050.03;5032825;28;20193;-31
2022/08/08 07:00:09;;;;;;;2.20;2.00;;;;;;;24.91;56.08;98051.75;5031785;28;20225;-31
2022/08/08 07:02:40;;;;;;;3.40;2.13;;;;;;;24.88;56.40;98047.44;5035230;28;20881;-31
2022/08/08 07:05:15;;;;;;;4.27;2.23;;;;;;;24.92;55.87;98051.81;5040916;28;20196;-31
2022/08/08 07:08:02;;;;;;;5.20;2.30;;;;;;;24.92;56.50;98051.81;5027213;28;20782;-32
2022/08/08 07:10:37;;;;;;;2.17;1.97;;;;;;;24.94;56.52;98054.41;5027791;28;20201;-31
2022/08/08 07:13:09;;;;;;;2.50;2.30;;;;;;;24.95;56.63;98057.03;5036199;28;20236;-31
2022/08/08 07:15:51;;;;;;;7.13;2.27;;;;;;;24.95;56.60;98051.88;5050918;28;20225;-31
2022/08/08 07:18:46;;;;;;;2.43;2.23;;;;;;;24.96;56.91;98057.91;5030847;28;20282;-31
2022/08/08 07:21:17;;;;;;;2.20;2.00;;;;;;;24.96;57.10;98053.59;5016949;28;20217;-31
2022/08/08 07:23:46;;;;;;;2.70;2.10;;;;;;;24.97;56.94;98049.34;5047016;28;20259;-31
2022/08/08 07:26:32;;;;;;;2.83;2.30;;;;;;;24.94;57.14;98050.16;5030957;28;20209;-31
2022/08/08 07:29:02;;;;;;;3.23;2.20;;;;;;;24.89;57.00;98041.44;5046826;28;20333;-31
2022/08/08 07:31:34;;;;;;;2.57;2.00;;;;;;;24.99;57.29;98063.13;5031439;28;20280;-31
2022/08/08 07:34:05;;;;;;;2.57;2.07;;;;;;;24.98;57.63;98061.34;5030798;28;20197;-31
2022/08/08 07:36:36;;;;;;;4.23;2.07;;;;;;;24.98;57.30;98067.38;5033002;28;20208;-31
2022/08/08 07:39:07;;;;;;;2.60;2.13;;;;;;;24.99;57.81;98068.25;5046898;28;20220;-31
2022/08/08 07:41:40;;;;;;;2.10;2.00;;;;;;;24.98;57.52;98067.38;5031918;28;20731;-31
2022/08/08 07:44:27;;;;;;;2.13;1.93;;;;;;;24.98;57.45;98064.81;5041015;28;20202;-31
2022/08/08 07:47:06;;;;;;;3.03;2.10;;;;;;;24.99;57.96;98065.69;5030002;28;20204;-31
2022/08/08 07:49:33;;;;;;;2.20;2.00;;;;;;;24.99;58.14;98069.09;5030809;28;20244;-31
2022/08/08 07:52:00;;;;;;;2.50;2.30;;;;;;;24.88;57.84;98044.84;5029637;28;20646;-31
2022/08/08 07:54:48;;;;;;;2.67;2.30;;;;;;;24.99;58.08;98066.53;5031708;28;20260;-31
2022/08/08 07:57:37;;;;;;;1.97;1.87;;;;;;;25.00;58.11;98064.84;5030748;28;20661;-31
2022/08/08 08:00:14;;;;;;;2.37;2.17;;;;;;;25.00;57.78;98070.00;5048592;28;20466;-31
2022/08/08 08:03:03;;;;;;;1.87;1.77;;;;;;;25.00;57.87;98073.44;5035420;28;20205;-31
2022/08/08 08:05:29;;;;;;;2.10;2.00;;;;;;;24.99;58.11;98069.09;5033358;28;20742;-31
2022/08/08 08:08:17;;;;;;;2.20;2.00;;;;;;;25.00;58.20;98076.00;5016799;28;20225;-31
2022/08/08 08:10:54;;;;;;;2.50;2.30;;;;;;;24.98;58.33;98067.38;5025893;28;20293;-31
2022/08/08 08:13:34;;;;;;;2.23;2.07;;;;;;;25.01;58.34;98072.59;5032462;28;20193;-31
2022/08/08 08:16:10;;;;;;;2.50;2.13;;;;;;;25.01;58.11;98080.31;5034758;28;20675;-31
2022/08/08 08:18:46;;;;;;;2.67;1.90;;;;;;;25.01;58.49;98074.28;5040117;28;20224;-31
2022/08/08 08:21:21;;;;;;;2.13;1.93;;;;;;;25.01;58.31;98071.72;5026236;28;20218;-31
2022/08/08 08:24:08;;;;;;;2.37;1.90;;;;;;;24.96;58.90;98068.19;5026822;28;20205;-31
2022/08/08 08:26:37;;;;;;;6.60;2.10;;;;;;;25.00;58.77;98070.88;5050145;28;20205;-31
2022/08/08 08:29:12;;;;;;;3.23;2.03;;;;;;;25.01;58.82;98075.16;5044796;28;20220;-31
2022/08/08 08:31:44;;;;;;;3.23;2.23;;;;;;;25.02;58.78;98073.47;5040367;28;20569;-31
2022/08/08 08:34:23;;;;;;;2.10;2.00;;;;;;;25.02;58.79;98076.91;5031623;28;20267;-30
2022/08/08 08:36:58;;;;;;;2.03;1.93;;;;;;;25.00;58.74;98072.56;5044365;28;20283;-31
2022/08/08 08:39:24;;;;;;;2.03;1.80;;;;;;;25.03;58.69;98075.19;5025697;28;20268;-31
2022/08/08 08:42:11;;;;;;;2.23;2.03;;;;;;;24.86;58.88;98050.78;5039251;28;20204;-31
2022/08/08 08:44:38;;;;;;;2.93;1.90;;;;;;;25.02;58.78;98076.03;5037574;28;20206;-31
2022/08/08 08:47:07;;;;;;;3.80;2.10;;;;;;;25.03;59.28;98080.34;5027785;28;20197;-31
2022/08/08 08:49:35;;;;;;;1.90;1.80;;;;;;;25.03;59.08;98076.09;5032474;28;20218;-31
2022/08/08 08:52:08;;;;;;;2.40;1.90;;;;;;;24.96;58.58;98060.47;5036306;28;20205;-31
2022/08/08 08:54:35;;;;;;;3.43;1.90;;;;;;;25.04;58.82;98072.66;5037344;28;20233;-31
2022/08/08 08:57:04;;;;;;;2.23;2.03;;;;;;;25.04;59.23;98074.34;5033903;28;20198;-31
2022/08/08 08:59:43;;;;;;;2.30;2.10;;;;;;;25.05;58.82;98083.84;5090955;22;20247;-22
2022/08/08 09:02:25;;;;;;;2.10;1.90;;;;;;;24.99;58.83;98070.81;5067740;28;20196;-23
2022/08/08 09:04:57;;;;;;;2.20;2.00;;;;;;;25.04;59.16;98077.81;5072773;28;20212;-23
2022/08/08 09:07:23;;;;;;;2.03;1.93;;;;;;;25.04;58.99;98082.06;5054735;28;20192;-22
2022/08/08 09:10:12;;;;;;;1.90;1.80;;;;;;;25.04;59.08;98088.09;5051611;28;20669;-23
2022/08/08 09:12:44;;;;;;;3.80;2.07;;;;;;;25.04;58.83;98082.97;5083286;28;20262;-22
2022/08/08 09:15:11;;;;;;;2.00;1.80;;;;;;;25.00;59.01;98072.56;5052083;28;20668;-22
2022/08/08 09:17:38;;;;;;;2.03;1.83;;;;;;;24.88;59.45;98052.56;5061783;28;20206;-23
2022/08/08 09:20:17;;;;;;;3.07;2.03;;;;;;;25.05;59.54;98083.84;5029718;28;20656;-22
2022/08/08 09:23:04;;;;;;;2.00;1.90;;;;;;;25.04;59.12;98077.81;5048689;28;20196;-23
2022/08/08 09:25:36;;;;;;;2.10;2.00;;;;;;;25.05;59.30;98078.69;5051624;28;20296;-23
2022/08/08 09:28:26;;;;;;;1.70;1.60;;;;;;;25.05;59.04;98074.41;5037912;28;20574;-24
2022/08/08 09:31:07;;;;;;;2.03;1.93;;;;;;;25.05;59.41;98071.81;5049361;28;20193;-23
2022/08/08 09:33:38;;;;;;;1.60;1.50;;;;;;;25.05;59.11;98071.81;5031506;28;20243;-23
2022/08/08 09:36:25;;;;;;;2.13;1.93;;;;;;;24.86;58.96;98040.47;5037018;28;20201;-22
2022/08/08 09:38:53;;;;;;;1.80;1.70;;;;;;;25.05;59.29;98078.69;5032294;28;20256;-23
2022/08/08 09:41:36;;;;;;;2.83;2.07;;;;;;;24.99;59.23;98066.53;5048962;28;20217;-23
2022/08/08 09:44:28;;;;;;;2.13;2.00;;;;;;;25.05;59.49;98061.53;5046386;28;20201;-22
2022/08/08 09:47:01;;;;;;;1.90;1.80;;;;;;;25.06;59.73;98076.16;5046676;28;20243;-23
2022/08/08 09:49:48;;;;;;;1.70;1.60;;;;;;;25.06;59.58;98070.13;5056766;28;20224;-22
2022/08/08 09:52:20;;;;;;;2.10;1.90;;;;;;;25.05;59.63;98061.53;5078486;28;20221;-22
2022/08/08 09:55:08;;;;;;;1.90;1.70;;;;;;;25.06;59.62;98062.41;5072750;28;20289;-23
2022/08/08 09:57:45;;;;;;;2.93;2.00;;;;;;;25.07;59.27;98056.44;5053774;28;20983;-22
2022/08/08 10:00:21;;;;;;;2.07;1.83;;;;;;;25.05;58.66;98066.69;5045049;28;20221;-23
2022/08/08 10:03:07;;;;;;;2.33;1.90;;;;;;;25.06;58.58;98063.31;5049392;28;20210;-22
2022/08/08 10:05:35;;;;;;;2.03;1.70;;;;;;;25.05;58.59;98064.09;5052667;28;20228;-23
2022/08/08 10:08:05;;;;;;;6.70;1.80;;;;;;;25.01;60.49;98057.16;5051647;28;20992;-22
2022/08/08 10:10:37;;;;;;;4.07;2.00;;;;;;;25.07;61.57;98054.72;5050436;28;20275;-21
2022/08/08 10:13:18;;;;;;;4.17;1.90;;;;;;;25.08;60.21;98060.75;5043883;28;20698;-22
2022/08/08 10:15:53;;;;;;;6.27;1.83;;;;;;;25.09;60.02;98057.34;5050504;28;20204;-23
2022/08/08 10:18:32;;;;;;;5.33;2.07;;;;;;;25.08;59.79;98050.47;5046836;28;20235;-22
2022/08/08 10:21:04;;;;;;;2.43;1.93;;;;;;;25.11;59.13;98056.53;5043080;28;20214;-21
2022/08/08 10:23:50;;;;;;;4.33;1.93;;;;;;;25.11;59.55;98056.53;5046073;28;20208;-22
2022/08/08 10:26:25;;;;;;;7.33;2.10;;;;;;;25.12;59.37;98052.28;5050724;28;20197;-21
2022/08/08 10:29:12;;;;;;;3.97;1.93;;;;;;;25.13;59.54;98037.72;5066177;28;20219;-23
2022/08/08 10:34:35;;;;;;;4.53;1.87;;;;;;;25.13;59.28;98043.72;5046505;28;20277;-22
2022/08/08 10:37:02;;;;;;;2.33;2.13;;;;;;;25.12;59.62;98041.97;5047783;28;20575;-22
2022/08/08 10:39:30;;;;;;;3.37;2.07;;;;;;;25.13;59.63;98045.44;5047844;28;20475;-23
2022/08/08 10:42:18;;;;;;;4.87;2.17;;;;;;;25.13;59.47;98042.03;5057379;28;20223;-22
2022/08/08 10:44:46;;;;;;;2.60;2.20;;;;;;;25.13;59.17;98035.16;5046980;28;20223;-22
2022/08/08 10:47:16;;;;;;;3.57;2.10;;;;;;;25.12;59.13;98039.41;5044095;28;20193;-33
2022/08/08 10:49:57;;;;;;;3.80;2.10;;;;;;;25.13;59.14;98035.16;5048831;28;20221;-22
2022/08/08 10:52:36;;;;;;;5.60;2.33;;;;;;;25.09;59.42;98029.06;5049789;28;20197;-22
2022/08/08 10:55:18;;;;;;;4.30;2.20;;;;;;;25.13;59.08;98036.88;5049348;28;20232;-22
2022/08/08 10:58:07;;;;;;;3.17;2.20;;;;;;;25.13;59.35;98033.41;5046928;28;20224;-23
2022/08/08 11:00:33;;;;;;;3.03;2.37;;;;;;;25.13;59.22;98030.84;5049564;28;20779;-22
2022/08/08 11:03:19;;;;;;;2.90;2.00;;;;;;;25.13;59.39;98039.44;5038404;28;20198;-22
2022/08/08 11:06:02;;;;;;;2.40;2.20;;;;;;;25.13;59.35;98028.28;5043362;28;20745;-22
2022/08/08 11:08:30;;;;;;;5.90;2.27;;;;;;;25.14;59.35;98024.91;5048387;28;20339;-23
2022/08/08 11:11:09;;;;;;;4.83;2.20;;;;;;;25.14;59.49;98030.03;5040778;28;20193;-22
2022/08/08 11:13:59;;;;;;;2.80;2.20;;;;;;;25.13;59.26;98020.56;5041655;28;20199;-22
2022/08/08 11:16:26;;;;;;;3.97;2.40;;;;;;;24.91;59.01;97978.06;5043049;28;20288;-22
2022/08/08 11:18:59;;;;;;;3.17;2.07;;;;;;;25.01;59.07;97995.44;5058454;28;20300;-22
2022/08/08 11:21:27;;;;;;;8.57;2.50;;;;;;;25.13;59.14;98024.84;5049459;28;20244;-23
2022/08/08 11:24:04;;;;;;;2.73;2.30;;;;;;;25.13;59.62;98016.28;5076433;28;20196;-23
2022/08/08 11:26:34;;;;;;;2.80;2.20;;;;;;;25.13;59.58;98015.41;5050231;28;20635;-22
2022/08/08 11:29:20;;;;;;;3.83;2.23;;;;;;;25.13;59.54;98013.72;5047070;28;20232;-22
2022/08/08 11:31:48;;;;;;;2.33;2.13;;;;;;;24.95;59.28;97979.00;5048151;28;20193;-22
2022/08/08 11:34:18;;;;;;;5.33;2.80;;;;;;;25.13;59.25;98004.28;5052826;28;20678;-22
2022/08/08 11:36:55;;;;;;;3.90;2.50;;;;;;;25.13;59.26;98025.69;5052671;28;20236;-21
2022/08/08 11:39:25;;;;;;;3.70;2.50;;;;;;;24.95;59.59;97976.41;5049012;28;20216;-22
2022/08/08 11:42:02;;;;;;;2.67;2.13;;;;;;;25.13;59.43;98024.84;5037372;28;20216;-22
2022/08/08 11:44:34;;;;;;;3.53;2.50;;;;;;;25.12;59.70;98021.41;5046627;28;20193;-23
2022/08/08 11:47:01;;;;;;;2.40;2.20;;;;;;;25.13;59.55;98024.84;5057902;28;20251;-22
2022/08/08 11:49:27;;;;;;;3.53;2.30;;;;;;;25.13;59.30;98025.69;5035498;28;20661;-22
2022/08/08 11:51:55;;;;;;;3.73;2.27;;;;;;;24.97;59.61;97985.94;5051233;28;20284;-22
2022/08/08 11:54:32;;;;;;;2.37;1.87;;;;;;;25.12;59.57;98005.97;5050034;28;20237;-22
2022/08/08 11:57:17;;;;;;;2.43;2.13;;;;;;;25.07;59.61;97987.88;5049965;28;20205;-23
2022/08/08 12:00:02;;;;;;;3.53;2.00;;;;;;;25.13;59.69;98006.84;5051940;28;20228;-22
2022/08/08 12:02:31;;;;;;;3.53;2.37;;;;;;;25.12;59.38;97987.97;5051721;28;20224;-22
2022/08/08 12:05:09;;;;;;;2.00;1.87;;;;;;;25.12;59.50;98000.81;5050727;28;20599;-21
2022/08/08 12:07:50;;;;;;;4.17;2.23;;;;;;;25.13;59.27;97993.16;5048898;28;20203;-23
2022/08/08 12:10:21;;;;;;;2.73;1.97;;;;;;;25.11;59.32;97999.94;5053321;28;20227;-22
2022/08/08 12:12:48;;;;;;;3.73;2.17;;;;;;;25.13;59.48;97994.00;5045870;28;20205;-22
2022/08/08 12:15:31;;;;;;;3.00;2.10;;;;;;;25.12;59.21;97998.25;5047760;28;20198;-22
2022/08/08 12:18:21;;;;;;;2.80;2.27;;;;;;;25.13;59.39;97991.41;5043915;28;20228;-22
2022/08/08 12:20:54;;;;;;;2.47;2.23;;;;;;;25.13;59.17;97991.41;5051936;28;20293;-23
2022/08/08 12:23:34;;;;;;;2.23;2.03;;;;;;;25.13;59.20;97986.28;5046243;28;20688;-23
2022/08/08 12:26:23;;;;;;;3.03;2.13;;;;;;;25.09;59.41;97998.19;5046672;28;20219;-22
2022/08/08 12:29:01;;;;;;;5.77;2.30;;;;;;;25.13;59.38;97986.28;5045311;28;20243;-22
2022/08/08 12:31:35;;;;;;;2.17;1.90;;;;;;;25.13;59.45;97981.13;5050771;28;20899;-22
2022/08/08 12:34:31;;;;;;;3.03;2.30;;;;;;;25.12;59.23;97977.69;5049101;28;20200;-22
2022/08/08 12:37:04;;;;;;;2.90;2.23;;;;;;;25.12;59.52;97977.69;5051329;28;20675;-22
2022/08/08 12:39:34;;;;;;;2.57;2.10;;;;;;;25.13;59.54;97981.13;5048625;28;20222;-23